sensor_id;sensor_type;location;lat;lon;timestamp;P1;durP1;ratioP1;P2;durP2;ratioP2
38911;SDS011;28444;48.056;14.408;2023-04-24T00:01:37;3.47;;;2.20;;
38911;SDS011;28444;48.056;14.408;2023-04-24T00:04:26;6.00;;;2.40;;
38911;SDS011;28444;48.056;14.408;2023-04-24T00:07:13;5.93;;;2.20;;
38911;SDS011;28444;48.056;14.408;2023-04-24T00:10:00;6.87;;;2.17;;
38911;SDS011;28444;48.056;14.408;2023-04-24T00:12:47;2.08;;;1.55;;
38911;SDS011;28444;48.056;14.408;2023-04-24T00:15:35;1.92;;;1.70;;
38911;SDS011;28444;48.056;14.408;2023-04-24T00:18:22;2.97;;;1.95;;
38911;SDS011;28444;48.056;14.408;2023-04-24T00:21:09;1.92;;;1.70;;
38911;SDS011;28444;48.056;14.408;2023-04-24T00:23:56;2.10;;;1.90;;
38911;SDS011;28444;48.056;14.408;2023-04-24T00:26:43;3.80;;;1.90;;
38911;SDS011;28444;48.056;14.408;2023-04-24T00:29:30;1.98;;;1.77;;
38911;SDS011;28444;48.056;14.408;2023-04-24T00:32:17;2.45;;;1.67;;
38911;SDS011;28444;48.056;14.408;2023-04-24T00:35:05;3.05;;;2.03;;
38911;SDS011;28444;48.056;14.408;2023-04-24T00:37:52;2.92;;;2.28;;
38911;SDS011;28444;48.056;14.408;2023-04-24T00:40:39;5.22;;;2.17;;
38911;SDS011;28444;48.056;14.408;2023-04-24T00:43:26;4.15;;;1.90;;
38911;SDS011;28444;48.056;14.408;2023-04-24T00:46:13;1.42;;;1.33;;
38911;SDS011;28444;48.056;14.408;2023-04-24T00:49:00;4.22;;;1.50;;
38911;SDS011;28444;48.056;14.408;2023-04-24T00:51:49;2.20;;;1.48;;
38911;SDS011;28444;48.056;14.408;2023-04-24T00:54:37;4.38;;;1.80;;
38911;SDS011;28444;48.056;14.408;2023-04-24T00:57:24;2.78;;;1.77;;
38911;SDS011;28444;48.056;14.408;2023-04-24T01:00:12;4.85;;;1.85;;
38911;SDS011;28444;48.056;14.408;2023-04-24T01:03:01;3.15;;;1.75;;
38911;SDS011;28444;48.056;14.408;2023-04-24T01:05:52;1.92;;;1.65;;
38911;SDS011;28444;48.056;14.408;2023-04-24T01:08:41;6.45;;;1.70;;
38911;SDS011;28444;48.056;14.408;2023-04-24T01:11:28;2.72;;;1.83;;
38911;SDS011;28444;48.056;14.408;2023-04-24T01:14:16;4.43;;;2.03;;
38911;SDS011;28444;48.056;14.408;2023-04-24T01:17:03;1.92;;;1.58;;
38911;SDS011;28444;48.056;14.408;2023-04-24T01:19:50;1.63;;;1.52;;
38911;SDS011;28444;48.056;14.408;2023-04-24T01:22:40;1.60;;;1.50;;
38911;SDS011;28444;48.056;14.408;2023-04-24T01:25:27;1.52;;;1.40;;
38911;SDS011;28444;48.056;14.408;2023-04-24T01:28:15;1.80;;;1.70;;
38911;SDS011;28444;48.056;14.408;2023-04-24T01:31:02;6.18;;;1.65;;
38911;SDS011;28444;48.056;14.408;2023-04-24T01:33:50;7.07;;;1.70;;
38911;SDS011;28444;48.056;14.408;2023-04-24T01:36:37;1.50;;;1.30;;
38911;SDS011;28444;48.056;14.408;2023-04-24T01:39:25;2.13;;;1.80;;
38911;SDS011;28444;48.056;14.408;2023-04-24T01:42:14;4.13;;;1.67;;
38911;SDS011;28444;48.056;14.408;2023-04-24T01:45:03;5.47;;;1.35;;
38911;SDS011;28444;48.056;14.408;2023-04-24T01:47:51;5.35;;;1.70;;
38911;SDS011;28444;48.056;14.408;2023-04-24T01:50:39;3.50;;;1.48;;
38911;SDS011;28444;48.056;14.408;2023-04-24T01:53:26;3.05;;;1.50;;
38911;SDS011;28444;48.056;14.408;2023-04-24T01:56:13;2.80;;;1.75;;
38911;SDS011;28444;48.056;14.408;2023-04-24T01:59:00;1.30;;;1.20;;
38911;SDS011;28444;48.056;14.408;2023-04-24T02:01:49;3.60;;;1.42;;
38911;SDS011;28444;48.056;14.408;2023-04-24T02:04:36;1.95;;;1.75;;
38911;SDS011;28444;48.056;14.408;2023-04-24T02:07:23;1.40;;;1.25;;
38911;SDS011;28444;48.056;14.408;2023-04-24T02:10:10;1.42;;;1.08;;
38911;SDS011;28444;48.056;14.408;2023-04-24T02:12:57;2.25;;;1.38;;
38911;SDS011;28444;48.056;14.408;2023-04-24T02:15:46;1.67;;;1.20;;
38911;SDS011;28444;48.056;14.408;2023-04-24T02:18:33;1.50;;;1.23;;
38911;SDS011;28444;48.056;14.408;2023-04-24T02:21:20;2.20;;;1.33;;
38911;SDS011;28444;48.056;14.408;2023-04-24T02:24:07;2.75;;;1.52;;
38911;SDS011;28444;48.056;14.408;2023-04-24T02:26:53;2.30;;;1.70;;
38911;SDS011;28444;48.056;14.408;2023-04-24T02:29:41;1.83;;;1.48;;
38911;SDS011;28444;48.056;14.408;2023-04-24T02:32:28;2.03;;;1.67;;
38911;SDS011;28444;48.056;14.408;2023-04-24T02:35:17;2.65;;;1.58;;
38911;SDS011;28444;48.056;14.408;2023-04-24T02:38:04;1.50;;;1.40;;
38911;SDS011;28444;48.056;14.408;2023-04-24T02:40:51;2.40;;;1.65;;
38911;SDS011;28444;48.056;14.408;2023-04-24T02:43:38;1.83;;;1.60;;
38911;SDS011;28444;48.056;14.408;2023-04-24T02:46:25;2.17;;;1.50;;
38911;SDS011;28444;48.056;14.408;2023-04-24T02:49:13;1.48;;;1.38;;
38911;SDS011;28444;48.056;14.408;2023-04-24T02:52:00;1.80;;;1.35;;
38911;SDS011;28444;48.056;14.408;2023-04-24T02:54:47;3.35;;;1.58;;
38911;SDS011;28444;48.056;14.408;2023-04-24T02:57:34;2.30;;;1.58;;
38911;SDS011;28444;48.056;14.408;2023-04-24T03:00:21;3.03;;;1.35;;
38911;SDS011;28444;48.056;14.408;2023-04-24T03:03:08;2.05;;;1.42;;
38911;SDS011;28444;48.056;14.408;2023-04-24T03:05:55;2.45;;;0.98;;
38911;SDS011;28444;48.056;14.408;2023-04-24T03:08:43;1.58;;;1.33;;
38911;SDS011;28444;48.056;14.408;2023-04-24T03:11:30;2.38;;;1.60;;
38911;SDS011;28444;48.056;14.408;2023-04-24T03:14:17;2.58;;;1.60;;
38911;SDS011;28444;48.056;14.408;2023-04-24T03:17:04;2.40;;;1.65;;
38911;SDS011;28444;48.056;14.408;2023-04-24T03:19:51;4.57;;;1.58;;
38911;SDS011;28444;48.056;14.408;2023-04-24T03:22:38;2.45;;;1.67;;
38911;SDS011;28444;48.056;14.408;2023-04-24T03:25:25;4.82;;;1.63;;
38911;SDS011;28444;48.056;14.408;2023-04-24T03:28:12;1.88;;;1.50;;
38911;SDS011;28444;48.056;14.408;2023-04-24T03:30:59;5.35;;;2.05;;
38911;SDS011;28444;48.056;14.408;2023-04-24T03:33:46;2.63;;;2.00;;
38911;SDS011;28444;48.056;14.408;2023-04-24T03:36:33;3.28;;;2.10;;
38911;SDS011;28444;48.056;14.408;2023-04-24T03:39:20;3.78;;;2.10;;
38911;SDS011;28444;48.056;14.408;2023-04-24T03:42:07;2.75;;;2.30;;
38911;SDS011;28444;48.056;14.408;2023-04-24T03:44:55;3.95;;;2.38;;
38911;SDS011;28444;48.056;14.408;2023-04-24T03:47:42;3.17;;;2.42;;
38911;SDS011;28444;48.056;14.408;2023-04-24T03:50:28;4.30;;;2.15;;
38911;SDS011;28444;48.056;14.408;2023-04-24T03:53:16;3.33;;;2.42;;
38911;SDS011;28444;48.056;14.408;2023-04-24T03:56:03;4.97;;;2.20;;
38911;SDS011;28444;48.056;14.408;2023-04-24T03:58:50;5.18;;;2.13;;
38911;SDS011;28444;48.056;14.408;2023-04-24T04:01:37;2.67;;;2.33;;
38911;SDS011;28444;48.056;14.408;2023-04-24T04:04:24;3.75;;;2.40;;
38911;SDS011;28444;48.056;14.408;2023-04-24T04:07:11;2.10;;;1.90;;
38911;SDS011;28444;48.056;14.408;2023-04-24T04:09:59;3.35;;;2.20;;
38911;SDS011;28444;48.056;14.408;2023-04-24T04:12:46;3.63;;;2.03;;
38911;SDS011;28444;48.056;14.408;2023-04-24T04:15:33;4.88;;;1.77;;
38911;SDS011;28444;48.056;14.408;2023-04-24T04:18:20;2.47;;;1.63;;
38911;SDS011;28444;48.056;14.408;2023-04-24T04:21:07;4.10;;;1.70;;
38911;SDS011;28444;48.056;14.408;2023-04-24T04:23:54;4.68;;;1.92;;
38911;SDS011;28444;48.056;14.408;2023-04-24T04:26:41;2.42;;;1.75;;
38911;SDS011;28444;48.056;14.408;2023-04-24T04:29:32;2.25;;;1.15;;
38911;SDS011;28444;48.056;14.408;2023-04-24T04:32:21;1.38;;;1.27;;
38911;SDS011;28444;48.056;14.408;2023-04-24T04:35:08;3.28;;;1.00;;
38911;SDS011;28444;48.056;14.408;2023-04-24T04:37:55;1.98;;;1.10;;
38911;SDS011;28444;48.056;14.408;2023-04-24T04:40:45;4.18;;;1.05;;
38911;SDS011;28444;48.056;14.408;2023-04-24T04:43:32;1.00;;;0.80;;
38911;SDS011;28444;48.056;14.408;2023-04-24T04:46:20;0.63;;;0.63;;
38911;SDS011;28444;48.056;14.408;2023-04-24T04:49:08;2.13;;;0.75;;
38911;SDS011;28444;48.056;14.408;2023-04-24T04:51:55;3.03;;;0.80;;
38911;SDS011;28444;48.056;14.408;2023-04-24T04:54:42;1.27;;;0.80;;
38911;SDS011;28444;48.056;14.408;2023-04-24T04:57:29;1.50;;;0.95;;
38911;SDS011;28444;48.056;14.408;2023-04-24T05:00:16;1.50;;;1.13;;
38911;SDS011;28444;48.056;14.408;2023-04-24T05:03:04;2.72;;;1.25;;
38911;SDS011;28444;48.056;14.408;2023-04-24T05:06:06;1.33;;;1.05;;
38911;SDS011;28444;48.056;14.408;2023-04-24T05:08:53;1.58;;;0.73;;
38911;SDS011;28444;48.056;14.408;2023-04-24T05:11:43;1.10;;;1.00;;
38911;SDS011;28444;48.056;14.408;2023-04-24T05:14:31;2.40;;;1.20;;
38911;SDS011;28444;48.056;14.408;2023-04-24T05:17:17;1.05;;;0.80;;
38911;SDS011;28444;48.056;14.408;2023-04-24T05:20:05;6.03;;;1.35;;
38911;SDS011;28444;48.056;14.408;2023-04-24T05:22:53;1.95;;;1.20;;
38911;SDS011;28444;48.056;14.408;2023-04-24T05:25:40;2.10;;;1.50;;
38911;SDS011;28444;48.056;14.408;2023-04-24T05:28:27;2.15;;;1.58;;
38911;SDS011;28444;48.056;14.408;2023-04-24T05:31:15;1.95;;;1.27;;
38911;SDS011;28444;48.056;14.408;2023-04-24T05:34:02;1.48;;;0.90;;
38911;SDS011;28444;48.056;14.408;2023-04-24T05:36:49;3.20;;;0.88;;
38911;SDS011;28444;48.056;14.408;2023-04-24T05:39:37;1.58;;;0.85;;
38911;SDS011;28444;48.056;14.408;2023-04-24T05:42:24;1.85;;;1.13;;
38911;SDS011;28444;48.056;14.408;2023-04-24T05:45:11;2.65;;;1.45;;
38911;SDS011;28444;48.056;14.408;2023-04-24T05:48:03;2.80;;;0.82;;
38911;SDS011;28444;48.056;14.408;2023-04-24T05:50:50;1.30;;;1.20;;
38911;SDS011;28444;48.056;14.408;2023-04-24T05:53:39;3.25;;;1.52;;
38911;SDS011;28444;48.056;14.408;2023-04-24T05:56:25;2.38;;;1.63;;
38911;SDS011;28444;48.056;14.408;2023-04-24T05:59:12;4.57;;;1.85;;
38911;SDS011;28444;48.056;14.408;2023-04-24T06:01:59;1.90;;;1.40;;
38911;SDS011;28444;48.056;14.408;2023-04-24T06:04:46;5.82;;;1.10;;
38911;SDS011;28444;48.056;14.408;2023-04-24T06:07:34;2.60;;;1.30;;
38911;SDS011;28444;48.056;14.408;2023-04-24T06:10:21;3.92;;;1.75;;
38911;SDS011;28444;48.056;14.408;2023-04-24T06:13:08;5.63;;;1.67;;
38911;SDS011;28444;48.056;14.408;2023-04-24T06:15:55;2.20;;;1.80;;
38911;SDS011;28444;48.056;14.408;2023-04-24T06:18:42;4.32;;;1.80;;
38911;SDS011;28444;48.056;14.408;2023-04-24T06:21:29;3.50;;;1.60;;
38911;SDS011;28444;48.056;14.408;2023-04-24T06:24:16;2.80;;;1.92;;
38911;SDS011;28444;48.056;14.408;2023-04-24T06:27:03;8.80;;;1.92;;
38911;SDS011;28444;48.056;14.408;2023-04-24T06:29:50;1.52;;;1.30;;
38911;SDS011;28444;48.056;14.408;2023-04-24T06:32:40;3.22;;;1.33;;
38911;SDS011;28444;48.056;14.408;2023-04-24T06:35:28;3.05;;;1.30;;
38911;SDS011;28444;48.056;14.408;2023-04-24T06:38:15;1.55;;;1.15;;
38911;SDS011;28444;48.056;14.408;2023-04-24T06:41:03;2.85;;;0.90;;
38911;SDS011;28444;48.056;14.408;2023-04-24T06:43:51;1.55;;;1.35;;
38911;SDS011;28444;48.056;14.408;2023-04-24T06:46:38;1.58;;;1.00;;
38911;SDS011;28444;48.056;14.408;2023-04-24T06:49:27;2.88;;;1.30;;
38911;SDS011;28444;48.056;14.408;2023-04-24T06:52:14;1.20;;;0.90;;
38911;SDS011;28444;48.056;14.408;2023-04-24T06:55:04;1.55;;;1.00;;
38911;SDS011;28444;48.056;14.408;2023-04-24T06:57:52;1.13;;;1.00;;
38911;SDS011;28444;48.056;14.408;2023-04-24T07:00:39;2.25;;;0.90;;
38911;SDS011;28444;48.056;14.408;2023-04-24T07:03:26;2.85;;;1.10;;
38911;SDS011;28444;48.056;14.408;2023-04-24T07:06:13;1.67;;;0.90;;
38911;SDS011;28444;48.056;14.408;2023-04-24T07:09:01;1.17;;;1.08;;
38911;SDS011;28444;48.056;14.408;2023-04-24T07:11:48;3.00;;;1.42;;
38911;SDS011;28444;48.056;14.408;2023-04-24T07:14:35;1.77;;;1.17;;
38911;SDS011;28444;48.056;14.408;2023-04-24T07:17:22;1.17;;;0.85;;
38911;SDS011;28444;48.056;14.408;2023-04-24T07:20:09;2.50;;;1.10;;
38911;SDS011;28444;48.056;14.408;2023-04-24T07:22:57;2.25;;;1.10;;
38911;SDS011;28444;48.056;14.408;2023-04-24T07:25:44;1.08;;;0.82;;
38911;SDS011;28444;48.056;14.408;2023-04-24T07:28:31;1.55;;;1.02;;
38911;SDS011;28444;48.056;14.408;2023-04-24T07:31:18;4.03;;;0.80;;
38911;SDS011;28444;48.056;14.408;2023-04-24T07:34:05;3.38;;;0.70;;
38911;SDS011;28444;48.056;14.408;2023-04-24T07:36:52;1.10;;;0.70;;
38911;SDS011;28444;48.056;14.408;2023-04-24T07:39:39;1.88;;;0.90;;
38911;SDS011;28444;48.056;14.408;2023-04-24T07:42:27;2.20;;;0.90;;
38911;SDS011;28444;48.056;14.408;2023-04-24T07:45:14;3.83;;;1.10;;
38911;SDS011;28444;48.056;14.408;2023-04-24T07:48:01;0.95;;;0.85;;
38911;SDS011;28444;48.056;14.408;2023-04-24T07:50:49;1.52;;;0.75;;
38911;SDS011;28444;48.056;14.408;2023-04-24T07:53:35;3.50;;;0.90;;
38911;SDS011;28444;48.056;14.408;2023-04-24T07:56:22;1.95;;;1.02;;
38911;SDS011;28444;48.056;14.408;2023-04-24T07:59:12;1.83;;;1.25;;
38911;SDS011;28444;48.056;14.408;2023-04-24T08:01:59;1.52;;;1.10;;
38911;SDS011;28444;48.056;14.408;2023-04-24T08:04:47;3.85;;;1.48;;
38911;SDS011;28444;48.056;14.408;2023-04-24T08:07:34;2.25;;;1.38;;
38911;SDS011;28444;48.056;14.408;2023-04-24T08:10:22;2.08;;;1.10;;
38911;SDS011;28444;48.056;14.408;2023-04-24T08:13:09;1.35;;;0.90;;
38911;SDS011;28444;48.056;14.408;2023-04-24T08:15:58;3.70;;;1.42;;
38911;SDS011;28444;48.056;14.408;2023-04-24T08:18:44;1.67;;;0.93;;
38911;SDS011;28444;48.056;14.408;2023-04-24T08:21:32;1.40;;;1.00;;
38911;SDS011;28444;48.056;14.408;2023-04-24T08:24:18;1.77;;;0.95;;
38911;SDS011;28444;48.056;14.408;2023-04-24T08:27:06;1.15;;;1.08;;
38911;SDS011;28444;48.056;14.408;2023-04-24T08:29:53;0.90;;;0.90;;
38911;SDS011;28444;48.056;14.408;2023-04-24T08:32:40;0.95;;;0.90;;
38911;SDS011;28444;48.056;14.408;2023-04-24T08:35:28;3.25;;;1.08;;
38911;SDS011;28444;48.056;14.408;2023-04-24T08:38:15;1.02;;;0.80;;
38911;SDS011;28444;48.056;14.408;2023-04-24T08:41:03;1.58;;;0.90;;
38911;SDS011;28444;48.056;14.408;2023-04-24T08:43:51;0.90;;;0.70;;
38911;SDS011;28444;48.056;14.408;2023-04-24T08:46:39;0.90;;;0.80;;
38911;SDS011;28444;48.056;14.408;2023-04-24T08:49:27;0.70;;;0.70;;
38911;SDS011;28444;48.056;14.408;2023-04-24T08:52:15;1.85;;;1.00;;
38911;SDS011;28444;48.056;14.408;2023-04-24T08:55:02;1.08;;;0.80;;
38911;SDS011;28444;48.056;14.408;2023-04-24T08:57:50;3.28;;;1.27;;
38911;SDS011;28444;48.056;14.408;2023-04-24T09:00:39;1.27;;;1.13;;
38911;SDS011;28444;48.056;14.408;2023-04-24T09:03:27;1.13;;;0.90;;
38911;SDS011;28444;48.056;14.408;2023-04-24T09:06:16;2.60;;;0.85;;
38911;SDS011;28444;48.056;14.408;2023-04-24T09:09:04;2.58;;;0.82;;
38911;SDS011;28444;48.056;14.408;2023-04-24T09:11:52;2.97;;;2.08;;
38911;SDS011;28444;48.056;14.408;2023-04-24T09:14:41;0.90;;;0.73;;
38911;SDS011;28444;48.056;14.408;2023-04-24T09:17:32;3.30;;;0.80;;
38911;SDS011;28444;48.056;14.408;2023-04-24T09:20:19;2.08;;;0.93;;
38911;SDS011;28444;48.056;14.408;2023-04-24T09:23:07;1.95;;;0.70;;
38911;SDS011;28444;48.056;14.408;2023-04-24T09:25:57;1.10;;;1.00;;
38911;SDS011;28444;48.056;14.408;2023-04-24T09:28:46;1.10;;;1.00;;
38911;SDS011;28444;48.056;14.408;2023-04-24T09:31:34;2.60;;;1.00;;
38911;SDS011;28444;48.056;14.408;2023-04-24T09:34:25;1.67;;;1.58;;
38911;SDS011;28444;48.056;14.408;2023-04-24T09:37:28;0.73;;;0.50;;
38911;SDS011;28444;48.056;14.408;2023-04-24T09:40:17;0.85;;;0.85;;
38911;SDS011;28444;48.056;14.408;2023-04-24T09:43:05;1.05;;;0.60;;
38911;SDS011;28444;48.056;14.408;2023-04-24T09:45:58;1.67;;;0.80;;
38911;SDS011;28444;48.056;14.408;2023-04-24T09:48:45;5.00;;;1.35;;
38911;SDS011;28444;48.056;14.408;2023-04-24T09:51:33;1.40;;;0.98;;
38911;SDS011;28444;48.056;14.408;2023-04-24T09:54:23;0.95;;;0.80;;
38911;SDS011;28444;48.056;14.408;2023-04-24T09:57:11;0.70;;;0.70;;
38911;SDS011;28444;48.056;14.408;2023-04-24T09:59:58;1.00;;;0.60;;
38911;SDS011;28444;48.056;14.408;2023-04-24T10:02:45;0.45;;;0.40;;
38911;SDS011;28444;48.056;14.408;2023-04-24T10:05:37;0.52;;;0.50;;
38911;SDS011;28444;48.056;14.408;2023-04-24T10:08:25;0.98;;;0.77;;
38911;SDS011;28444;48.056;14.408;2023-04-24T10:11:13;2.45;;;0.77;;
38911;SDS011;28444;48.056;14.408;2023-04-24T10:14:00;2.00;;;0.98;;
38911;SDS011;28444;48.056;14.408;2023-04-24T10:16:48;0.50;;;0.50;;
38911;SDS011;28444;48.056;14.408;2023-04-24T10:19:36;2.75;;;0.60;;
38911;SDS011;28444;48.056;14.408;2023-04-24T10:22:24;0.52;;;0.50;;
38911;SDS011;28444;48.056;14.408;2023-04-24T10:25:11;1.98;;;0.70;;
38911;SDS011;28444;48.056;14.408;2023-04-24T10:27:59;1.05;;;0.70;;
38911;SDS011;28444;48.056;14.408;2023-04-24T10:30:47;2.67;;;1.38;;
38911;SDS011;28444;48.056;14.408;2023-04-24T10:33:34;2.65;;;1.08;;
38911;SDS011;28444;48.056;14.408;2023-04-24T10:36:22;3.67;;;1.08;;
38911;SDS011;28444;48.056;14.408;2023-04-24T10:39:13;4.35;;;1.35;;
38911;SDS011;28444;48.056;14.408;2023-04-24T10:42:13;1.70;;;1.00;;
38911;SDS011;28444;48.056;14.408;2023-04-24T10:45:05;4.10;;;1.50;;
38911;SDS011;28444;48.056;14.408;2023-04-24T10:48:03;2.00;;;0.90;;
38911;SDS011;28444;48.056;14.408;2023-04-24T10:50:52;1.50;;;0.70;;
38911;SDS011;28444;48.056;14.408;2023-04-24T10:53:40;1.05;;;0.68;;
38911;SDS011;28444;48.056;14.408;2023-04-24T10:56:27;1.13;;;0.73;;
38911;SDS011;28444;48.056;14.408;2023-04-24T10:59:23;2.28;;;0.90;;
38911;SDS011;28444;48.056;14.408;2023-04-24T11:02:14;2.85;;;0.90;;
38911;SDS011;28444;48.056;14.408;2023-04-24T11:05:05;1.02;;;0.65;;
38911;SDS011;28444;48.056;14.408;2023-04-24T11:11:10;0.73;;;0.68;;
38911;SDS011;28444;48.056;14.408;2023-04-24T11:14:02;0.60;;;0.60;;
38911;SDS011;28444;48.056;14.408;2023-04-24T11:16:52;2.53;;;0.77;;
38911;SDS011;28444;48.056;14.408;2023-04-24T11:19:44;1.58;;;0.57;;
38911;SDS011;28444;48.056;14.408;2023-04-24T11:22:40;0.73;;;0.73;;
38911;SDS011;28444;48.056;14.408;2023-04-24T11:25:28;0.88;;;0.70;;
38911;SDS011;28444;48.056;14.408;2023-04-24T11:28:17;1.10;;;0.85;;
38911;SDS011;28444;48.056;14.408;2023-04-24T11:34:28;1.70;;;0.90;;
38911;SDS011;28444;48.056;14.408;2023-04-24T11:37:15;3.72;;;1.33;;
38911;SDS011;28444;48.056;14.408;2023-04-24T11:40:03;0.85;;;0.70;;
38911;SDS011;28444;48.056;14.408;2023-04-24T11:42:54;1.00;;;0.50;;
38911;SDS011;28444;48.056;14.408;2023-04-24T11:45:48;4.05;;;1.00;;
38911;SDS011;28444;48.056;14.408;2023-04-24T11:48:36;1.33;;;0.45;;
38911;SDS011;28444;48.056;14.408;2023-04-24T11:51:26;4.20;;;0.70;;
38911;SDS011;28444;48.056;14.408;2023-04-24T11:54:22;1.42;;;0.70;;
38911;SDS011;28444;48.056;14.408;2023-04-24T11:57:09;1.05;;;0.60;;
38911;SDS011;28444;48.056;14.408;2023-04-24T11:59:56;0.60;;;0.50;;
38911;SDS011;28444;48.056;14.408;2023-04-24T12:02:43;1.17;;;0.80;;
38911;SDS011;28444;48.056;14.408;2023-04-24T12:05:30;1.40;;;0.88;;
38911;SDS011;28444;48.056;14.408;2023-04-24T12:08:28;2.35;;;0.98;;
38911;SDS011;28444;48.056;14.408;2023-04-24T12:11:15;0.88;;;0.63;;
38911;SDS011;28444;48.056;14.408;2023-04-24T12:14:13;1.02;;;0.73;;
38911;SDS011;28444;48.056;14.408;2023-04-24T12:17:00;1.10;;;0.88;;
38911;SDS011;28444;48.056;14.408;2023-04-24T12:19:49;0.70;;;0.65;;
38911;SDS011;28444;48.056;14.408;2023-04-24T12:22:46;2.00;;;0.75;;
38911;SDS011;28444;48.056;14.408;2023-04-24T12:25:41;0.85;;;0.68;;
38911;SDS011;28444;48.056;14.408;2023-04-24T12:28:34;4.05;;;0.70;;
38911;SDS011;28444;48.056;14.408;2023-04-24T12:31:25;1.15;;;0.57;;
38911;SDS011;28444;48.056;14.408;2023-04-24T12:34:19;1.48;;;0.50;;
38911;SDS011;28444;48.056;14.408;2023-04-24T12:37:10;1.45;;;0.88;;
38911;SDS011;28444;48.056;14.408;2023-04-24T12:40:07;1.85;;;0.90;;
38911;SDS011;28444;48.056;14.408;2023-04-24T12:42:56;8.35;;;1.30;;
38911;SDS011;28444;48.056;14.408;2023-04-24T12:45:43;3.85;;;1.35;;
38911;SDS011;28444;48.056;14.408;2023-04-24T12:48:33;1.08;;;1.00;;
38911;SDS011;28444;48.056;14.408;2023-04-24T12:51:20;2.08;;;1.02;;
38911;SDS011;28444;48.056;14.408;2023-04-24T12:54:07;2.97;;;0.93;;
38911;SDS011;28444;48.056;14.408;2023-04-24T12:56:54;1.80;;;1.30;;
38911;SDS011;28444;48.056;14.408;2023-04-24T12:59:43;3.17;;;1.30;;
38911;SDS011;28444;48.056;14.408;2023-04-24T13:02:30;2.60;;;0.90;;
38911;SDS011;28444;48.056;14.408;2023-04-24T13:05:18;3.50;;;1.05;;
38911;SDS011;28444;48.056;14.408;2023-04-24T13:08:05;1.42;;;0.93;;
38911;SDS011;28444;48.056;14.408;2023-04-24T13:10:51;2.63;;;1.13;;
38911;SDS011;28444;48.056;14.408;2023-04-24T13:13:40;3.03;;;1.17;;
38911;SDS011;28444;48.056;14.408;2023-04-24T13:16:27;2.45;;;1.13;;
38911;SDS011;28444;48.056;14.408;2023-04-24T13:19:14;1.33;;;1.23;;
38911;SDS011;28444;48.056;14.408;2023-04-24T13:22:01;1.27;;;1.02;;
38911;SDS011;28444;48.056;14.408;2023-04-24T13:24:49;1.40;;;0.98;;
38911;SDS011;28444;48.056;14.408;2023-04-24T13:27:37;1.60;;;0.80;;
38911;SDS011;28444;48.056;14.408;2023-04-24T13:30:26;3.92;;;1.20;;
38911;SDS011;28444;48.056;14.408;2023-04-24T13:33:13;2.97;;;1.45;;
38911;SDS011;28444;48.056;14.408;2023-04-24T13:35:59;1.40;;;1.23;;
38911;SDS011;28444;48.056;14.408;2023-04-24T13:38:46;1.38;;;1.10;;
38911;SDS011;28444;48.056;14.408;2023-04-24T13:41:33;1.45;;;0.85;;
38911;SDS011;28444;48.056;14.408;2023-04-24T13:44:21;1.30;;;1.17;;
38911;SDS011;28444;48.056;14.408;2023-04-24T13:47:10;0.73;;;0.73;;
38911;SDS011;28444;48.056;14.408;2023-04-24T13:49:56;4.70;;;0.88;;
38911;SDS011;28444;48.056;14.408;2023-04-24T13:52:43;3.20;;;1.35;;
38911;SDS011;28444;48.056;14.408;2023-04-24T13:55:30;2.05;;;1.00;;
38911;SDS011;28444;48.056;14.408;2023-04-24T13:58:17;3.67;;;1.20;;
38911;SDS011;28444;48.056;14.408;2023-04-24T14:01:04;2.30;;;1.33;;
38911;SDS011;28444;48.056;14.408;2023-04-24T14:03:52;1.45;;;1.35;;
38911;SDS011;28444;48.056;14.408;2023-04-24T14:06:39;2.53;;;1.63;;
38911;SDS011;28444;48.056;14.408;2023-04-24T14:09:26;1.83;;;1.40;;
38911;SDS011;28444;48.056;14.408;2023-04-24T14:12:13;1.90;;;1.40;;
38911;SDS011;28444;48.056;14.408;2023-04-24T14:15:03;1.88;;;1.58;;
38911;SDS011;28444;48.056;14.408;2023-04-24T14:17:51;2.03;;;1.60;;
38911;SDS011;28444;48.056;14.408;2023-04-24T14:20:38;2.78;;;1.25;;
38911;SDS011;28444;48.056;14.408;2023-04-24T14:23:25;2.08;;;1.58;;
38911;SDS011;28444;48.056;14.408;2023-04-24T14:26:12;2.08;;;1.80;;
38911;SDS011;28444;48.056;14.408;2023-04-24T14:28:59;2.40;;;1.58;;
38911;SDS011;28444;48.056;14.408;2023-04-24T14:32:00;5.45;;;2.33;;
38911;SDS011;28444;48.056;14.408;2023-04-24T14:34:47;3.42;;;2.10;;
38911;SDS011;28444;48.056;14.408;2023-04-24T14:37:34;4.18;;;2.20;;
38911;SDS011;28444;48.056;14.408;2023-04-24T14:40:22;4.20;;;1.63;;
38911;SDS011;28444;48.056;14.408;2023-04-24T14:43:29;4.85;;;1.63;;
38911;SDS011;28444;48.056;14.408;2023-04-24T14:46:16;3.58;;;2.42;;
38911;SDS011;28444;48.056;14.408;2023-04-24T14:49:03;7.97;;;2.50;;
38911;SDS011;28444;48.056;14.408;2023-04-24T14:51:51;3.00;;;2.10;;
38911;SDS011;28444;48.056;14.408;2023-04-24T14:54:38;7.05;;;2.55;;
38911;SDS011;28444;48.056;14.408;2023-04-24T14:57:25;5.65;;;2.42;;
38911;SDS011;28444;48.056;14.408;2023-04-24T15:00:12;2.72;;;2.15;;
38911;SDS011;28444;48.056;14.408;2023-04-24T15:03:00;7.00;;;2.30;;
38911;SDS011;28444;48.056;14.408;2023-04-24T15:05:48;2.65;;;1.40;;
38911;SDS011;28444;48.056;14.408;2023-04-24T15:08:37;2.47;;;1.30;;
38911;SDS011;28444;48.056;14.408;2023-04-24T15:11:23;2.25;;;0.70;;
38911;SDS011;28444;48.056;14.408;2023-04-24T15:14:11;2.05;;;0.73;;
38911;SDS011;28444;48.056;14.408;2023-04-24T15:16:58;3.10;;;0.98;;
38911;SDS011;28444;48.056;14.408;2023-04-24T15:19:45;0.80;;;0.80;;
38911;SDS011;28444;48.056;14.408;2023-04-24T15:22:32;4.93;;;1.05;;
38911;SDS011;28444;48.056;14.408;2023-04-24T15:25:19;0.70;;;0.70;;
38911;SDS011;28444;48.056;14.408;2023-04-24T15:28:06;1.23;;;0.95;;
38911;SDS011;28444;48.056;14.408;2023-04-24T15:30:53;1.88;;;0.88;;
38911;SDS011;28444;48.056;14.408;2023-04-24T15:33:40;1.77;;;1.02;;
38911;SDS011;28444;48.056;14.408;2023-04-24T15:36:27;1.98;;;1.35;;
38911;SDS011;28444;48.056;14.408;2023-04-24T15:39:14;2.85;;;2.15;;
38911;SDS011;28444;48.056;14.408;2023-04-24T15:42:01;5.63;;;2.67;;
38911;SDS011;28444;48.056;14.408;2023-04-24T15:44:48;5.75;;;1.98;;
38911;SDS011;28444;48.056;14.408;2023-04-24T15:47:35;3.53;;;1.70;;
38911;SDS011;28444;48.056;14.408;2023-04-24T15:50:22;2.50;;;1.35;;
38911;SDS011;28444;48.056;14.408;2023-04-24T15:53:10;1.45;;;1.20;;
38911;SDS011;28444;48.056;14.408;2023-04-24T15:55:57;1.65;;;1.30;;
38911;SDS011;28444;48.056;14.408;2023-04-24T15:58:44;1.13;;;1.00;;
38911;SDS011;28444;48.056;14.408;2023-04-24T16:01:32;1.80;;;1.27;;
38911;SDS011;28444;48.056;14.408;2023-04-24T16:04:19;1.27;;;1.17;;
38911;SDS011;28444;48.056;14.408;2023-04-24T16:07:06;4.13;;;1.17;;
38911;SDS011;28444;48.056;14.408;2023-04-24T16:09:53;3.30;;;1.25;;
38911;SDS011;28444;48.056;14.408;2023-04-24T16:12:41;1.35;;;1.20;;
38911;SDS011;28444;48.056;14.408;2023-04-24T16:15:28;2.63;;;1.10;;
38911;SDS011;28444;48.056;14.408;2023-04-24T16:18:15;2.15;;;1.48;;
38911;SDS011;28444;48.056;14.408;2023-04-24T16:21:03;3.30;;;1.52;;
38911;SDS011;28444;48.056;14.408;2023-04-24T16:23:50;2.15;;;1.42;;
38911;SDS011;28444;48.056;14.408;2023-04-24T16:26:37;1.67;;;1.30;;
38911;SDS011;28444;48.056;14.408;2023-04-24T16:29:25;1.52;;;1.10;;
38911;SDS011;28444;48.056;14.408;2023-04-24T16:32:11;1.65;;;1.27;;
38911;SDS011;28444;48.056;14.408;2023-04-24T16:34:59;1.65;;;1.55;;
38911;SDS011;28444;48.056;14.408;2023-04-24T16:37:46;2.70;;;1.25;;
38911;SDS011;28444;48.056;14.408;2023-04-24T16:40:33;3.80;;;1.35;;
38911;SDS011;28444;48.056;14.408;2023-04-24T16:43:20;1.95;;;1.17;;